createdAt,value
2018-04-24T00:00:42.684Z,11.89
2018-04-24T00:02:35.412Z,11.88
2018-04-24T00:03:35.303Z,11.79
2018-04-24T00:05:28.134Z,11.70
2018-04-24T00:06:28.037Z,11.77
2018-04-24T00:08:20.797Z,11.73
2018-04-24T00:09:20.681Z,11.79
2018-04-24T00:11:13.428Z,11.85
2018-04-24T00:12:13.372Z,11.82
2018-04-24T00:14:06.102Z,11.84
2018-04-24T00:15:05.981Z,11.80
2018-04-24T00:16:59.254Z,11.77
2018-04-24T00:17:59.147Z,11.69
2018-04-24T00:19:52.423Z,11.76
2018-04-24T00:20:52.299Z,11.66
2018-04-24T00:22:45.180Z,11.76
2018-04-24T00:23:45.078Z,11.79
2018-04-24T00:25:37.813Z,11.93
2018-04-24T00:26:37.702Z,11.89
2018-04-24T00:28:30.587Z,11.91
2018-04-24T00:29:30.442Z,11.89
2018-04-24T00:31:23.189Z,11.89
2018-04-24T00:32:23.093Z,12.03
2018-04-24T00:34:16.011Z,12.05
2018-04-24T00:35:15.870Z,11.97
2018-04-24T00:37:08.590Z,11.96
2018-04-24T00:38:08.492Z,12.03
2018-04-24T00:40:01.359Z,11.99
2018-04-24T00:41:01.237Z,11.93
2018-04-24T00:42:53.982Z,11.89
2018-04-24T00:43:53.890Z,11.82
2018-04-24T00:45:46.789Z,11.84
2018-04-24T00:46:46.538Z,11.80
2018-04-24T00:48:39.278Z,11.84
2018-04-24T00:49:39.185Z,11.85
2018-04-24T00:51:32.040Z,11.84
2018-04-24T00:52:31.930Z,11.82
2018-04-24T00:54:24.668Z,11.80
2018-04-24T00:55:24.577Z,11.62
2018-04-24T00:57:17.335Z,11.64
2018-04-24T00:58:17.226Z,11.62
2018-04-24T01:00:10.118Z,11.54
2018-04-24T01:01:09.897Z,11.45
2018-04-24T01:03:02.642Z,11.34
2018-04-24T01:04:02.525Z,11.25
2018-04-24T01:05:55.283Z,11.28
2018-04-24T01:06:55.169Z,11.33
2018-04-24T01:08:47.911Z,11.25
2018-04-24T01:09:47.821Z,11.27
2018-04-24T01:11:40.578Z,11.30
2018-04-24T01:12:40.475Z,11.30
2018-04-24T01:14:33.215Z,11.41
2018-04-24T01:15:33.133Z,11.31
2018-04-24T01:17:25.906Z,11.38
2018-04-24T01:18:25.774Z,11.33
2018-04-24T01:20:18.500Z,11.18
2018-04-24T01:21:18.401Z,11.20
2018-04-24T01:23:11.185Z,11.19
2018-04-24T01:24:11.051Z,11.25
2018-04-24T01:26:03.890Z,11.20
2018-04-24T01:27:03.796Z,11.12
2018-04-24T01:28:56.562Z,11.15
2018-04-24T01:29:56.447Z,11.08
2018-04-24T01:31:49.192Z,11.03
2018-04-24T01:32:49.105Z,11.22
2018-04-24T01:34:41.952Z,11.09
2018-04-24T01:35:41.837Z,11.13
2018-04-24T01:37:34.614Z,11.13
2018-04-24T01:38:34.625Z,11.15
2018-04-24T01:40:27.236Z,11.09
2018-04-24T01:41:27.207Z,11.13
2018-04-24T01:43:19.917Z,11.11
2018-04-24T01:44:19.782Z,11.11
2018-04-24T01:46:12.535Z,10.97
2018-04-24T01:47:12.431Z,10.91
2018-04-24T01:49:05.206Z,10.78
2018-04-24T01:50:05.215Z,10.72
2018-04-24T01:51:57.841Z,10.73
2018-04-24T01:52:57.798Z,10.65
2018-04-24T01:54:51.002Z,10.55
2018-04-24T01:55:50.914Z,10.54
2018-04-24T01:57:43.651Z,10.46
2018-04-24T01:58:43.531Z,10.48
2018-04-24T02:00:36.283Z,10.45
2018-04-24T02:01:36.177Z,10.49
2018-04-24T02:03:28.919Z,10.34
2018-04-24T02:04:28.843Z,10.30
2018-04-24T02:06:21.587Z,10.36
2018-04-24T02:07:21.470Z,10.20
2018-04-24T02:09:14.248Z,10.10
2018-04-24T02:10:14.121Z,10.14
2018-04-24T02:12:06.975Z,10.03
2018-04-24T02:13:06.875Z,9.98
2018-04-24T02:14:59.643Z,9.84
2018-04-24T02:15:59.530Z,9.67
2018-04-24T02:17:52.290Z,9.73
2018-04-24T02:18:52.173Z,9.69
2018-04-24T02:20:45.016Z,9.62
2018-04-24T02:21:44.913Z,9.66
2018-04-24T02:23:37.754Z,9.52
2018-04-24T02:24:37.674Z,9.42
2018-04-24T02:26:30.431Z,9.51
2018-04-24T02:27:30.320Z,9.54
2018-04-24T02:29:23.146Z,9.37
2018-04-24T02:30:23.065Z,9.27
2018-04-24T02:32:15.810Z,9.33
2018-04-24T02:33:15.722Z,9.34
2018-04-24T02:35:08.449Z,9.22
2018-04-24T02:36:08.349Z,9.16
2018-04-24T02:38:01.110Z,9.03
2018-04-24T02:39:01.004Z,9.06
2018-04-24T02:40:53.758Z,8.99
2018-04-24T02:41:53.646Z,9.01
2018-04-24T02:43:46.408Z,8.99
2018-04-24T02:44:46.298Z,9.04
2018-04-24T02:46:39.054Z,8.93
2018-04-24T02:47:38.959Z,8.86
2018-04-24T02:49:32.319Z,8.90
2018-04-24T02:50:32.200Z,8.95
2018-04-24T02:52:24.943Z,8.80
2018-04-24T02:53:25.455Z,8.85
2018-04-24T02:55:17.623Z,8.74
2018-04-24T02:56:17.489Z,8.70
2018-04-24T02:58:10.298Z,8.71
2018-04-24T02:59:10.142Z,8.85
2018-04-24T03:01:02.991Z,8.72
2018-04-24T03:02:02.911Z,8.68
2018-04-24T03:03:55.666Z,8.72
2018-04-24T03:04:55.544Z,8.72
2018-04-24T03:06:48.279Z,8.80
2018-04-24T03:07:48.202Z,8.72
2018-04-24T03:09:41.053Z,8.86
2018-04-24T03:10:40.969Z,8.95
2018-04-24T03:12:34.223Z,9.11
2018-04-24T03:13:34.095Z,9.01
2018-04-24T03:15:26.858Z,9.08
2018-04-24T03:16:26.738Z,9.18
2018-04-24T03:18:19.611Z,9.14
2018-04-24T03:19:19.486Z,9.16
2018-04-24T03:21:12.251Z,9.29
2018-04-24T03:22:12.168Z,9.19
2018-04-24T03:24:04.892Z,9.29
2018-04-24T03:25:04.812Z,9.40
2018-04-24T03:26:57.551Z,9.63
2018-04-24T03:27:57.433Z,9.73
2018-04-24T03:29:50.278Z,9.91
2018-04-24T03:30:50.184Z,10.03
2018-04-24T03:32:42.935Z,10.03
2018-04-24T03:33:42.829Z,10.18
2018-04-24T03:35:35.575Z,10.28
2018-04-24T03:36:35.482Z,10.34
2018-04-24T03:38:28.251Z,10.43
2018-04-24T03:39:28.123Z,10.54
2018-04-24T03:41:20.971Z,10.86
2018-04-24T03:42:20.910Z,11.09
2018-04-24T03:44:13.650Z,11.27
2018-04-24T03:45:13.535Z,11.48
2018-04-24T03:47:06.327Z,11.62
2018-04-24T03:48:06.176Z,11.70
2018-04-24T03:49:59.427Z,11.91
2018-04-24T03:50:59.327Z,11.88
2018-04-24T03:52:52.081Z,12.05
2018-04-24T03:53:51.991Z,11.97
2018-04-24T03:55:44.825Z,11.85
2018-04-24T03:56:44.739Z,11.77
2018-04-24T03:58:37.575Z,11.80
2018-04-24T03:59:37.484Z,11.87
2018-04-24T04:01:30.325Z,11.97
2018-04-24T04:02:30.242Z,12.00
2018-04-24T04:04:23.089Z,12.00
2018-04-24T04:05:22.993Z,12.00
2018-04-24T04:07:15.725Z,12.07
2018-04-24T04:08:15.634Z,12.14
2018-04-24T04:10:08.898Z,12.13
2018-04-24T04:11:08.790Z,12.08
2018-04-24T04:13:01.525Z,12.07
2018-04-24T04:14:01.441Z,12.03
2018-04-24T04:15:54.331Z,12.11
2018-04-24T04:16:54.192Z,12.07
2018-04-24T04:18:47.029Z,12.22
2018-04-24T04:19:46.936Z,12.15
2018-04-24T04:21:39.680Z,12.28
2018-04-24T04:22:39.610Z,12.35
2018-04-24T04:24:32.442Z,12.36
2018-04-24T04:25:32.357Z,12.32
2018-04-24T04:27:25.130Z,12.23
2018-04-24T04:28:24.979Z,12.32
2018-04-24T04:30:17.841Z,12.32
2018-04-24T04:31:17.622Z,12.35
2018-04-24T04:33:10.467Z,12.41
2018-04-24T04:34:10.372Z,12.40
2018-04-24T04:36:03.141Z,12.40
2018-04-24T04:37:03.020Z,12.38
2018-04-24T04:38:55.783Z,12.35
2018-04-24T04:39:55.696Z,12.40
2018-04-24T04:41:48.440Z,12.30
2018-04-24T04:42:48.332Z,12.29
2018-04-24T04:44:41.078Z,12.25
2018-04-24T04:45:40.972Z,12.33
2018-04-24T04:47:33.735Z,12.40
2018-04-24T04:48:33.608Z,12.40
2018-04-24T04:50:26.446Z,12.46
2018-04-24T04:51:26.353Z,12.43
2018-04-24T04:53:19.137Z,12.50
2018-04-24T04:54:19.003Z,12.46
2018-04-24T04:56:11.795Z,12.36
2018-04-24T04:57:11.656Z,12.40
2018-04-24T04:59:04.454Z,12.33
2018-04-24T05:00:04.318Z,12.43
2018-04-24T05:01:57.185Z,12.35
2018-04-24T05:02:57.066Z,12.32
2018-04-24T05:04:49.825Z,12.29
2018-04-24T05:05:49.693Z,12.36
2018-04-24T05:07:42.554Z,12.30
2018-04-24T05:08:42.467Z,12.30
2018-04-24T05:10:35.220Z,12.36
2018-04-24T05:11:35.091Z,12.28
2018-04-24T05:13:27.941Z,12.35
2018-04-24T05:14:27.844Z,12.33
2018-04-24T05:16:20.673Z,12.26
2018-04-24T05:17:20.491Z,12.25
2018-04-24T05:19:13.778Z,12.28
2018-04-24T05:20:13.678Z,12.32
2018-04-24T05:22:06.426Z,12.44
2018-04-24T05:23:06.299Z,12.40
2018-04-24T05:24:59.053Z,12.36
2018-04-24T05:25:58.957Z,12.40
2018-04-24T05:27:51.817Z,12.53
2018-04-24T05:28:51.590Z,12.51
2018-04-24T05:30:44.441Z,12.51
2018-04-24T05:31:44.341Z,12.53
2018-04-24T05:33:37.126Z,12.59
2018-04-24T05:34:36.983Z,12.61
2018-04-24T05:36:29.781Z,12.59
2018-04-24T05:37:29.642Z,12.54
2018-04-24T05:39:22.471Z,12.59
2018-04-24T05:40:22.381Z,12.61
2018-04-24T05:42:15.130Z,12.58
2018-04-24T05:43:15.043Z,12.65
2018-04-24T05:45:07.820Z,12.62
2018-04-24T05:46:07.670Z,12.65
2018-04-24T05:48:00.447Z,12.72
2018-04-24T05:49:00.355Z,12.68
2018-04-24T05:50:53.126Z,12.79
2018-04-24T05:51:52.977Z,12.77
2018-04-24T05:53:45.722Z,12.76
2018-04-24T05:54:45.619Z,12.77
2018-04-24T05:56:38.501Z,12.91
2018-04-24T05:57:38.404Z,12.90
2018-04-24T05:59:31.114Z,13.01
2018-04-24T06:00:31.018Z,12.93
2018-04-24T06:02:23.791Z,12.93
2018-04-24T06:03:23.670Z,13.01
2018-04-24T06:05:16.530Z,12.99
2018-04-24T06:06:16.405Z,13.05
2018-04-24T06:08:09.178Z,13.06
2018-04-24T06:09:09.080Z,13.08
2018-04-24T06:11:01.891Z,13.09
2018-04-24T06:12:01.808Z,13.11
2018-04-24T06:13:54.573Z,13.09
2018-04-24T06:14:54.473Z,13.19
2018-04-24T06:16:47.192Z,13.29
2018-04-24T06:17:47.119Z,13.40
2018-04-24T06:19:39.855Z,13.40
2018-04-24T06:20:39.746Z,13.42
2018-04-24T06:22:32.540Z,13.45
2018-04-24T06:23:32.390Z,13.36
2018-04-24T06:25:25.170Z,13.47
2018-04-24T06:26:25.048Z,13.42
2018-04-24T06:28:17.819Z,13.54
2018-04-24T06:29:17.692Z,13.40
2018-04-24T06:31:10.951Z,13.51
2018-04-24T06:32:10.852Z,13.63
2018-04-24T06:34:03.714Z,13.67
2018-04-24T06:35:03.598Z,13.60
2018-04-24T06:36:56.362Z,13.55
2018-04-24T06:37:56.267Z,13.53
2018-04-24T06:39:49.117Z,13.40
2018-04-24T06:40:48.996Z,13.49
2018-04-24T06:42:41.745Z,13.45
2018-04-24T06:43:41.639Z,13.38
2018-04-24T06:45:34.403Z,13.27
2018-04-24T06:46:34.313Z,13.23
2018-04-24T06:48:27.691Z,13.20
2018-04-24T06:49:27.056Z,13.35
2018-04-24T06:51:19.797Z,13.38
2018-04-24T06:52:19.682Z,13.46
2018-04-24T06:54:12.533Z,13.47
2018-04-24T06:55:12.430Z,13.54
2018-04-24T06:57:05.707Z,13.42
2018-04-24T06:58:05.600Z,13.51
2018-04-24T06:59:58.375Z,13.64
2018-04-24T07:00:58.239Z,13.72
2018-04-24T07:02:52.544Z,13.65
2018-04-24T07:03:52.432Z,13.65
2018-04-24T07:05:45.210Z,13.63
2018-04-24T07:06:45.071Z,13.65
2018-04-24T07:08:37.925Z,13.78
2018-04-24T07:09:37.822Z,13.67
2018-04-24T07:11:30.626Z,13.68
2018-04-24T07:12:30.522Z,13.71
2018-04-24T07:14:23.224Z,13.71
2018-04-24T07:15:23.121Z,13.83
2018-04-24T07:17:15.882Z,13.91
2018-04-24T07:18:15.769Z,13.94
2018-04-24T07:20:08.624Z,14.00
2018-04-24T07:21:08.513Z,13.96
2018-04-24T07:23:01.380Z,14.11
2018-04-24T07:24:01.328Z,14.11
2018-04-24T07:25:54.128Z,14.12
2018-04-24T07:26:54.017Z,14.11
2018-04-24T07:28:46.767Z,13.97
2018-04-24T07:29:46.671Z,13.94
2018-04-24T07:31:39.536Z,13.73
2018-04-24T07:32:39.447Z,13.82
2018-04-24T07:34:32.168Z,13.96
2018-04-24T07:35:32.066Z,14.04
2018-04-24T07:37:24.930Z,14.18
2018-04-24T07:38:24.804Z,14.21
2018-04-24T07:40:17.550Z,14.23
2018-04-24T07:41:17.467Z,14.40
2018-04-24T07:43:10.364Z,14.48
2018-04-24T07:44:10.232Z,14.46
2018-04-24T07:46:03.073Z,14.45
2018-04-24T07:47:02.971Z,14.46
2018-04-24T07:48:55.715Z,14.45
2018-04-24T07:49:55.596Z,14.53
2018-04-24T07:51:48.437Z,14.46
2018-04-24T07:52:48.346Z,14.34
2018-04-24T07:54:41.120Z,14.30
2018-04-24T07:55:41.001Z,14.34
2018-04-24T07:57:33.857Z,14.31
2018-04-24T07:58:33.639Z,14.21
2018-04-24T08:00:26.506Z,14.19
2018-04-24T08:01:26.409Z,14.23
2018-04-24T08:03:19.257Z,14.15
2018-04-24T08:04:19.060Z,14.09
2018-04-24T08:06:11.896Z,14.28
2018-04-24T08:07:11.785Z,14.38
2018-04-24T08:09:04.631Z,14.48
2018-04-24T08:10:04.539Z,14.64
2018-04-24T08:11:57.304Z,14.89
2018-04-24T08:12:57.196Z,14.86
2018-04-24T08:14:50.084Z,14.71
2018-04-24T08:15:49.949Z,14.61
2018-04-24T08:17:43.194Z,14.61
2018-04-24T08:18:43.107Z,14.73
2018-04-24T08:20:35.904Z,14.69
2018-04-24T08:21:35.759Z,14.71
2018-04-24T08:23:28.584Z,14.79
2018-04-24T08:24:28.494Z,14.69
2018-04-24T08:26:21.760Z,14.69
2018-04-24T08:27:21.652Z,14.66
2018-04-24T08:29:14.497Z,14.63
2018-04-24T08:30:14.394Z,14.69
2018-04-24T08:32:07.249Z,14.79
2018-04-24T08:33:07.149Z,14.86
2018-04-24T08:34:59.989Z,14.83
2018-04-24T08:35:59.904Z,14.86
2018-04-24T08:37:52.673Z,14.77
2018-04-24T08:38:52.561Z,14.83
2018-04-24T08:40:45.422Z,14.86
2018-04-24T08:41:45.298Z,14.89
2018-04-24T08:43:38.054Z,15.03
2018-04-24T08:44:37.958Z,15.08
2018-04-24T08:46:30.809Z,15.19
2018-04-24T08:47:30.701Z,15.35
2018-04-24T08:49:23.529Z,15.38
2018-04-24T08:50:23.449Z,15.47
2018-04-24T08:52:16.291Z,15.50
2018-04-24T08:53:16.200Z,15.44
2018-04-24T08:55:09.037Z,15.17
2018-04-24T08:56:08.943Z,15.29
2018-04-24T08:58:01.796Z,15.04
2018-04-24T08:59:01.711Z,14.95
2018-04-24T09:00:54.946Z,14.79
2018-04-24T09:01:54.873Z,14.77
2018-04-24T09:03:47.728Z,14.66
2018-04-24T09:04:47.604Z,14.78
2018-04-24T09:06:40.441Z,15.03
2018-04-24T09:07:40.351Z,14.99
2018-04-24T09:09:33.106Z,14.87
2018-04-24T09:10:33.004Z,14.85
2018-04-24T09:12:25.851Z,15.03
2018-04-24T09:13:25.751Z,15.10
2018-04-24T09:15:18.500Z,14.97
2018-04-24T09:16:18.421Z,15.07
2018-04-24T09:18:11.255Z,14.92
2018-04-24T09:19:11.148Z,15.14
2018-04-24T09:21:03.897Z,15.11
2018-04-24T09:22:03.794Z,15.14
2018-04-24T09:23:56.656Z,14.93
2018-04-24T09:24:56.536Z,15.01
2018-04-24T09:26:49.368Z,15.05
2018-04-24T09:27:49.198Z,15.17
2018-04-24T09:29:42.053Z,15.25
2018-04-24T09:30:41.940Z,15.20
2018-04-24T09:34:20.097Z,15.27
2018-04-24T09:35:07.372Z,15.40
2018-04-24T09:37:00.202Z,15.20
2018-04-24T09:38:00.105Z,15.22
2018-04-24T09:39:52.866Z,15.20
2018-04-24T09:40:52.760Z,15.14
2018-04-24T09:42:45.628Z,14.99
2018-04-24T09:43:45.539Z,14.93
2018-04-24T09:45:38.399Z,14.93
2018-04-24T09:46:38.274Z,15.01
2018-04-24T09:48:30.994Z,14.95
2018-04-24T09:49:30.918Z,14.92
2018-04-24T09:51:23.815Z,14.97
2018-04-24T09:52:23.681Z,15.05
2018-04-24T09:54:16.501Z,15.12
2018-04-24T09:55:16.404Z,15.08
2018-04-24T09:57:09.165Z,15.07
2018-04-24T09:58:09.045Z,15.03
2018-04-24T10:00:01.914Z,15.04
2018-04-24T10:01:01.797Z,15.11
2018-04-24T10:02:54.593Z,15.11
2018-04-24T10:03:54.479Z,15.23
2018-04-24T10:05:47.327Z,15.33
2018-04-24T10:06:47.198Z,15.38
2018-04-24T10:08:40.050Z,15.38
2018-04-24T10:09:39.935Z,15.22
2018-04-24T10:11:32.800Z,15.30
2018-04-24T10:12:32.699Z,15.41
2018-04-24T10:14:25.959Z,15.41
2018-04-24T10:15:25.860Z,15.27
2018-04-24T10:17:18.704Z,15.26
2018-04-24T10:18:18.605Z,15.23
2018-04-24T10:20:11.878Z,15.15
2018-04-24T10:21:11.757Z,14.96
2018-04-24T10:23:04.628Z,14.83
2018-04-24T10:24:04.524Z,14.82
2018-04-24T10:25:57.249Z,14.70
2018-04-24T10:26:57.173Z,14.69
2018-04-24T10:28:50.023Z,14.70
2018-04-24T10:29:49.901Z,14.69
2018-04-24T10:31:42.649Z,14.92
2018-04-24T10:32:42.552Z,14.87
2018-04-24T10:34:35.501Z,14.90
2018-04-24T10:35:35.400Z,14.89
2018-04-24T10:37:28.215Z,14.85
2018-04-24T10:38:28.052Z,14.87
2018-04-24T10:40:20.965Z,14.93
2018-04-24T10:41:20.801Z,14.86
2018-04-24T10:43:13.669Z,14.85
2018-04-24T10:44:13.544Z,14.86
2018-04-24T10:46:06.417Z,15.07
2018-04-24T10:47:06.305Z,15.07
2018-04-24T10:48:59.041Z,15.20
2018-04-24T10:49:58.950Z,15.15
2018-04-24T10:51:51.883Z,15.17
2018-04-24T10:52:51.693Z,15.23
2018-04-24T10:54:44.546Z,15.19
2018-04-24T10:55:44.355Z,15.30
2018-04-24T10:57:37.221Z,15.22
2018-04-24T10:58:37.091Z,15.22
2018-04-24T11:00:29.840Z,15.29
2018-04-24T11:01:29.743Z,15.27
2018-04-24T11:03:22.634Z,15.20
2018-04-24T11:04:22.518Z,15.14
2018-04-24T11:06:15.332Z,15.19
2018-04-24T11:07:15.268Z,15.27
2018-04-24T11:09:08.596Z,15.32
2018-04-24T11:10:08.403Z,15.59
2018-04-24T11:12:01.175Z,15.83
2018-04-24T11:13:01.052Z,15.85
2018-04-24T11:14:53.893Z,15.88
2018-04-24T11:15:53.819Z,15.78
2018-04-24T11:17:46.691Z,15.56
2018-04-24T11:18:46.569Z,15.40
2018-04-24T11:20:39.421Z,15.30
2018-04-24T11:21:39.318Z,15.36
2018-04-24T11:23:32.164Z,15.27
2018-04-24T11:24:32.045Z,15.41
2018-04-24T11:26:25.305Z,15.56
2018-04-24T11:27:25.219Z,15.54
2018-04-24T11:29:18.097Z,15.17
2018-04-24T11:30:17.959Z,15.25
2018-04-24T11:32:10.803Z,15.25
2018-04-24T11:33:10.704Z,15.30
2018-04-24T11:35:03.570Z,15.17
2018-04-24T11:36:03.525Z,15.17
2018-04-24T11:37:56.315Z,15.27
2018-04-24T11:38:56.244Z,15.30
2018-04-24T11:40:49.090Z,15.38
2018-04-24T11:41:48.977Z,15.52
2018-04-24T11:43:42.230Z,15.54
2018-04-24T11:44:42.131Z,15.56
2018-04-24T11:46:34.977Z,15.73
2018-04-24T11:47:34.863Z,15.87
2018-04-24T11:49:27.716Z,15.90
2018-04-24T11:50:27.634Z,16.00
2018-04-24T11:52:20.483Z,16.13
2018-04-24T11:53:20.357Z,16.21
2018-04-24T11:55:13.234Z,15.93
2018-04-24T11:56:13.113Z,15.88
2018-04-24T11:58:05.975Z,15.88
2018-04-24T11:59:05.887Z,15.93
2018-04-24T12:00:58.747Z,15.91
2018-04-24T12:01:58.617Z,16.06
2018-04-24T12:03:51.483Z,16.08
2018-04-24T12:04:51.360Z,16.08
2018-04-24T12:06:44.234Z,16.25
2018-04-24T12:07:44.107Z,16.29
2018-04-24T12:09:36.980Z,16.10
2018-04-24T12:10:36.876Z,16.22
2018-04-24T12:12:29.723Z,16.34
2018-04-24T12:13:29.615Z,16.28
2018-04-24T12:15:22.864Z,16.29
2018-04-24T12:16:22.784Z,16.22
2018-04-24T12:18:15.641Z,16.17
2018-04-24T12:19:15.525Z,16.08
2018-04-24T12:21:08.274Z,15.95
2018-04-24T12:22:08.177Z,15.88
2018-04-24T12:24:00.933Z,16.06
2018-04-24T12:25:00.819Z,16.09
2018-04-24T12:26:54.088Z,16.09
2018-04-24T12:27:53.993Z,16.25
2018-04-24T12:29:46.840Z,16.39
2018-04-24T12:30:46.714Z,16.44
2018-04-24T12:32:39.587Z,16.58
2018-04-24T12:33:39.489Z,16.61
2018-04-24T12:35:32.234Z,16.21
2018-04-24T12:36:32.125Z,16.09
2018-04-24T12:38:24.992Z,16.13
2018-04-24T12:39:24.884Z,16.25
2018-04-24T12:41:17.629Z,16.16
2018-04-24T12:42:17.532Z,16.09
2018-04-24T12:44:10.408Z,15.95
2018-04-24T12:45:10.320Z,16.17
2018-04-24T12:47:03.130Z,16.06
2018-04-24T12:48:03.037Z,16.10
2018-04-24T12:49:55.880Z,16.55
2018-04-24T12:50:55.764Z,16.52
2018-04-24T12:52:49.056Z,16.62
2018-04-24T12:53:48.927Z,16.32
2018-04-24T12:55:41.792Z,15.99
2018-04-24T12:56:41.687Z,15.96
2018-04-24T12:58:34.432Z,16.06
2018-04-24T12:59:34.333Z,16.13
2018-04-24T13:01:27.196Z,16.08
2018-04-24T13:02:27.102Z,16.13
2018-04-24T13:04:19.922Z,16.16
2018-04-24T13:05:19.814Z,16.13
2018-04-24T13:07:12.699Z,16.24
2018-04-24T13:08:12.565Z,16.18
2018-04-24T13:10:05.545Z,16.40
2018-04-24T13:11:05.435Z,16.36
2018-04-24T13:12:58.265Z,16.44
2018-04-24T13:13:58.167Z,16.51
2018-04-24T13:15:51.069Z,16.22
2018-04-24T13:16:50.818Z,16.32
2018-04-24T13:18:43.668Z,16.59
2018-04-24T13:19:43.566Z,16.57
2018-04-24T13:21:36.317Z,16.61
2018-04-24T13:22:36.242Z,16.64
2018-04-24T13:24:29.478Z,16.59
2018-04-24T13:25:29.386Z,16.57
2018-04-24T13:27:22.253Z,16.32
2018-04-24T13:28:22.144Z,16.24
2018-04-24T13:30:14.982Z,16.18
2018-04-24T13:31:14.877Z,16.16
2018-04-24T13:33:07.631Z,15.91
2018-04-24T13:34:07.567Z,16.13
2018-04-24T13:36:00.418Z,16.22
2018-04-24T13:37:00.304Z,16.39
2018-04-24T13:38:53.621Z,16.21
2018-04-24T13:39:53.022Z,16.21
2018-04-24T13:41:45.894Z,16.22
2018-04-24T13:42:45.775Z,16.18
2018-04-24T13:44:38.633Z,16.28
2018-04-24T13:45:38.534Z,16.18
2018-04-24T13:47:31.408Z,16.22
2018-04-24T13:48:31.277Z,16.14
2018-04-24T13:50:24.153Z,16.09
2018-04-24T13:51:24.024Z,16.06
2018-04-24T13:53:16.778Z,16.02
2018-04-24T13:54:16.680Z,15.98
2018-04-24T13:56:09.521Z,15.91
2018-04-24T13:57:09.410Z,16.00
2018-04-24T13:59:02.273Z,15.96
2018-04-24T14:00:02.173Z,15.87
2018-04-24T14:01:55.006Z,15.85
2018-04-24T14:02:54.909Z,15.84
2018-04-24T14:04:47.773Z,15.91
2018-04-24T14:05:47.669Z,15.88
2018-04-24T14:07:40.398Z,15.84
2018-04-24T14:08:40.318Z,15.90
2018-04-24T14:10:33.075Z,15.83
2018-04-24T14:11:32.965Z,15.93
2018-04-24T14:13:25.813Z,15.85
2018-04-24T14:14:25.707Z,15.80
2018-04-24T14:16:18.469Z,15.83
2018-04-24T14:17:18.364Z,15.87
2018-04-24T14:19:11.606Z,16.03
2018-04-24T14:20:11.515Z,16.21
2018-04-24T14:22:04.361Z,16.28
2018-04-24T14:23:04.334Z,16.29
2018-04-24T14:24:57.000Z,16.39
2018-04-24T14:25:56.910Z,16.24
2018-04-24T14:27:49.756Z,16.64
2018-04-24T14:28:49.667Z,16.95
2018-04-24T14:30:42.412Z,17.10
2018-04-24T14:31:42.321Z,17.13
2018-04-24T14:33:35.153Z,17.52
2018-04-24T14:34:35.048Z,17.39
2018-04-24T14:36:27.944Z,17.27
2018-04-24T14:37:27.803Z,17.34
2018-04-24T14:39:20.664Z,17.30
2018-04-24T14:40:20.557Z,17.34
2018-04-24T14:42:13.409Z,17.41
2018-04-24T14:43:13.315Z,17.34
2018-04-24T14:45:06.172Z,17.28
2018-04-24T14:46:06.055Z,16.99
2018-04-24T14:47:58.918Z,17.07
2018-04-24T14:48:58.816Z,17.12
2018-04-24T14:50:51.646Z,17.17
2018-04-24T14:51:51.550Z,17.22
2018-04-24T14:53:44.409Z,16.97
2018-04-24T14:54:44.306Z,17.02
2018-04-24T14:56:37.181Z,16.87
2018-04-24T14:57:37.052Z,16.79
2018-04-24T14:59:29.966Z,16.82
2018-04-24T15:00:29.804Z,16.87
2018-04-24T15:02:22.650Z,16.79
2018-04-24T15:03:22.554Z,16.57
2018-04-24T15:05:15.417Z,16.54
2018-04-24T15:06:15.335Z,16.55
2018-04-24T15:08:08.152Z,16.70
2018-04-24T15:09:08.058Z,16.67
2018-04-24T15:11:00.904Z,16.72
2018-04-24T15:12:00.797Z,16.87
2018-04-24T15:13:53.653Z,16.79
2018-04-24T15:14:53.686Z,16.74
2018-04-24T15:16:46.403Z,16.79
2018-04-24T15:17:46.312Z,16.90
2018-04-24T15:19:39.565Z,16.76
2018-04-24T15:20:39.060Z,16.54
2018-04-24T15:22:31.927Z,16.58
2018-04-24T15:23:31.809Z,16.64
2018-04-24T15:25:24.685Z,16.59
2018-04-24T15:26:24.541Z,16.59
2018-04-24T15:28:17.391Z,16.70
2018-04-24T15:29:17.303Z,16.90
2018-04-24T15:31:10.098Z,16.90
2018-04-24T15:32:09.945Z,16.88
2018-04-24T15:34:02.814Z,16.98
2018-04-24T15:35:02.723Z,16.98
2018-04-24T15:36:55.533Z,17.25
2018-04-24T15:37:55.443Z,17.32
2018-04-24T15:39:48.330Z,17.34
2018-04-24T15:40:48.188Z,17.20
2018-04-24T15:42:40.935Z,17.10
2018-04-24T15:43:40.841Z,17.28
2018-04-24T15:45:33.687Z,17.56
2018-04-24T15:46:33.583Z,17.71
2018-04-24T15:48:26.429Z,17.71
2018-04-24T15:49:26.435Z,17.50
2018-04-24T15:51:19.273Z,17.27
2018-04-24T15:52:19.093Z,17.35
2018-04-24T15:54:11.934Z,17.49
2018-04-24T15:55:11.845Z,17.41
2018-04-24T15:57:04.724Z,17.04
2018-04-24T15:58:04.652Z,16.88
2018-04-24T15:59:57.433Z,16.80
2018-04-24T16:00:57.342Z,16.73
2018-04-24T16:02:50.202Z,16.57
2018-04-24T16:03:50.085Z,16.64
2018-04-24T16:05:42.942Z,16.69
2018-04-24T16:06:42.854Z,16.84
2018-04-24T16:08:35.692Z,17.01
2018-04-24T16:09:35.590Z,17.01
2018-04-24T16:11:28.446Z,16.64
2018-04-24T16:12:28.331Z,16.70
2018-04-24T16:14:21.185Z,16.83
2018-04-24T16:15:21.091Z,17.07
2018-04-24T16:17:13.945Z,17.02
2018-04-24T16:18:13.844Z,16.98
2018-04-24T16:20:06.688Z,16.91
2018-04-24T16:21:06.612Z,16.95
2018-04-24T16:22:59.459Z,16.76
2018-04-24T16:23:59.334Z,16.72
2018-04-24T16:25:52.291Z,16.49
2018-04-24T16:26:52.197Z,16.33
2018-04-24T16:28:45.037Z,16.18
2018-04-24T16:29:45.036Z,16.16
2018-04-24T16:31:37.785Z,16.10
2018-04-24T16:32:37.692Z,16.08
2018-04-24T16:34:30.572Z,16.29
2018-04-24T16:35:30.457Z,16.16
2018-04-24T16:37:23.314Z,16.06
2018-04-24T16:38:23.191Z,15.91
2018-04-24T16:40:16.043Z,15.77
2018-04-24T16:41:15.935Z,15.83
2018-04-24T16:43:09.212Z,15.87
2018-04-24T16:44:09.229Z,15.76
2018-04-24T16:46:01.946Z,15.56
2018-04-24T16:47:01.846Z,15.50
2018-04-24T16:48:55.442Z,15.40
2018-04-24T16:49:55.255Z,15.33
2018-04-24T16:51:47.469Z,15.19
2018-04-24T16:52:47.358Z,15.20
2018-04-24T16:54:40.231Z,15.20
2018-04-24T16:55:40.099Z,15.15
2018-04-24T16:57:32.965Z,15.20
2018-04-24T16:58:32.858Z,15.22
2018-04-24T17:00:25.636Z,15.40
2018-04-24T17:01:25.643Z,15.40
2018-04-24T17:03:18.367Z,15.35
2018-04-24T17:04:18.255Z,15.26
2018-04-24T17:06:11.384Z,15.38
2018-04-24T17:07:11.202Z,15.40
2018-04-24T17:09:03.938Z,15.32
2018-04-24T17:10:03.874Z,15.27
2018-04-24T17:11:57.112Z,15.29
2018-04-24T17:12:57.001Z,15.26
2018-04-24T17:14:49.773Z,15.20
2018-04-24T17:15:49.646Z,15.10
2018-04-24T17:17:42.505Z,15.11
2018-04-24T17:18:42.385Z,15.07
2018-04-24T17:20:35.159Z,15.10
2018-04-24T17:21:35.055Z,15.07
2018-04-24T17:23:27.816Z,15.04
2018-04-24T17:24:27.716Z,15.05
2018-04-24T17:26:20.454Z,15.04
2018-04-24T17:27:20.329Z,15.03
2018-04-24T17:29:13.200Z,15.04
2018-04-24T17:30:13.131Z,15.12
2018-04-24T17:32:05.972Z,15.27
2018-04-24T17:33:05.857Z,15.22
2018-04-24T17:34:58.601Z,15.15
2018-04-24T17:35:58.486Z,15.15
2018-04-24T17:37:51.279Z,15.07
2018-04-24T17:38:51.134Z,15.07
2018-04-24T17:40:43.987Z,15.07
2018-04-24T17:41:43.892Z,15.10
2018-04-24T17:43:36.652Z,15.05
2018-04-24T17:44:36.551Z,14.96
2018-04-24T17:46:29.402Z,14.87
2018-04-24T17:47:29.284Z,14.87
2018-04-24T17:49:22.036Z,14.96
2018-04-24T17:50:21.953Z,14.66
2018-04-24T17:52:14.764Z,14.58
2018-04-24T17:53:14.673Z,14.53
2018-04-24T17:55:07.443Z,14.59
2018-04-24T17:56:07.364Z,14.66
2018-04-24T17:58:00.224Z,14.70
2018-04-24T17:59:00.069Z,14.69
2018-04-24T18:00:52.847Z,14.59
2018-04-24T18:01:52.749Z,14.63
2018-04-24T18:03:45.587Z,14.63
2018-04-24T18:04:45.597Z,14.59
2018-04-24T18:06:38.232Z,14.51
2018-04-24T18:07:38.145Z,14.49
2018-04-24T18:09:30.889Z,14.40
2018-04-24T18:10:30.755Z,14.40
2018-04-24T18:12:23.561Z,14.37
2018-04-24T18:13:23.416Z,14.37
2018-04-24T18:15:16.304Z,14.37
2018-04-24T18:16:16.156Z,14.36
2018-04-24T18:18:09.004Z,14.23
2018-04-24T18:19:08.875Z,14.23
2018-04-24T18:21:01.684Z,14.11
2018-04-24T18:22:01.552Z,14.15
2018-04-24T18:23:54.414Z,14.13
2018-04-24T18:24:54.307Z,14.12
2018-04-24T18:26:47.571Z,14.08
2018-04-24T18:27:47.532Z,14.15
2018-04-24T18:29:40.715Z,14.11
2018-04-24T18:30:40.626Z,14.11
2018-04-24T18:32:33.380Z,13.93
2018-04-24T18:33:33.290Z,13.91
2018-04-24T18:35:26.057Z,13.90
2018-04-24T18:36:25.928Z,13.80